RYR57DQ EIKY-EGSS
Flight info
| Callsign | RYR57DQ |
|---|---|
| Flight time | 1h 17m |
| Altitude | 31000 |
| Route | KER3B KER DCT ENJEX DCT AVZAC DCT ICOSA DCT RUHUN DCT YORQI DCT CAWZE P2 SIRIC |
| Aircraft | B738/M-SDE2E3FGHIRWXY/LB1 |
Departure
| Time | 2026-05-06 18:28 |
|---|---|
| Airport | Kerry Airport (EIKY) |
Arrival
| Time | 2026-05-06 19:45 |
|---|---|
| Airport | London Stansted Airport (EGSS) |
| Time | Latitude | Longitude | Altitude | Speed | Heading |
|---|---|---|---|---|---|
| 2026-05-06 18:06 | 52.18087 | -9.53733 | 90 ft | 0 kts | 110° |
| 2026-05-06 18:21 | 52.18084 | -9.53721 | 93 ft | 5 kts | 113° |
| 2026-05-06 18:21 | 52.18074 | -9.53703 | 90 ft | 0 kts | 139° |
| 2026-05-06 18:21 | 52.18072 | -9.53700 | 90 ft | 2 kts | 140° |
| 2026-05-06 18:22 | 52.18035 | -9.53658 | 92 ft | 7 kts | 147° |
| 2026-05-06 18:22 | 52.17992 | -9.53619 | 91 ft | 7 kts | 155° |
| 2026-05-06 18:22 | 52.17946 | -9.53592 | 92 ft | 7 kts | 161° |
| 2026-05-06 18:22 | 52.17938 | -9.53588 | 90 ft | 0 kts | 161° |
| 2026-05-06 18:23 | 52.17934 | -9.53586 | 93 ft | 0 kts | 163° |
| 2026-05-06 18:23 | 52.17932 | -9.53586 | 93 ft | 1 kts | 163° |
| 2026-05-06 18:23 | 52.17920 | -9.53580 | 91 ft | 3 kts | 165° |
| 2026-05-06 18:24 | 52.17890 | -9.53567 | 92 ft | 5 kts | 160° |
| 2026-05-06 18:24 | 52.17869 | -9.53540 | 92 ft | 6 kts | 131° |
| 2026-05-06 18:24 | 52.17866 | -9.53460 | 91 ft | 9 kts | 74° |
| 2026-05-06 18:24 | 52.17887 | -9.53350 | 91 ft | 12 kts | 71° |
| 2026-05-06 18:25 | 52.17930 | -9.53145 | 91 ft | 25 kts | 71° |
| 2026-05-06 18:25 | 52.17992 | -9.52853 | 93 ft | 22 kts | 71° |
| 2026-05-06 18:25 | 52.18050 | -9.52564 | 90 ft | 32 kts | 71° |
| 2026-05-06 18:25 | 52.18124 | -9.52215 | 90 ft | 29 kts | 70° |
| 2026-05-06 18:26 | 52.18189 | -9.51909 | 90 ft | 28 kts | 71° |
| 2026-05-06 18:26 | 52.18249 | -9.51619 | 91 ft | 26 kts | 71° |
| 2026-05-06 18:26 | 52.18306 | -9.51349 | 95 ft | 24 kts | 71° |
| 2026-05-06 18:26 | 52.18362 | -9.51118 | 92 ft | 17 kts | 45° |
| 2026-05-06 18:27 | 52.18372 | -9.51021 | 93 ft | 7 kts | 194° |
| 2026-05-06 18:27 | 52.18357 | -9.51098 | 91 ft | 7 kts | 253° |
| 2026-05-06 18:27 | 52.18340 | -9.51184 | 93 ft | 16 kts | 252° |
| 2026-05-06 18:27 | 52.18218 | -9.51765 | 91 ft | 91 kts | 251° |
| 2026-05-06 18:28 | 52.17942 | -9.53085 | 95 ft | 152 kts | 251° |
| 2026-05-06 18:28 | 52.17578 | -9.54829 | 601 ft | 166 kts | 252° |
| 2026-05-06 18:28 | 52.17170 | -9.56647 | 1396 ft | 170 kts | 251° |
| 2026-05-06 18:28 | 52.16740 | -9.58461 | 2207 ft | 179 kts | 255° |
| 2026-05-06 18:29 | 52.16392 | -9.60587 | 2509 ft | 208 kts | 257° |
| 2026-05-06 18:29 | 52.15998 | -9.62984 | 2846 ft | 228 kts | 255° |
| 2026-05-06 18:29 | 52.15562 | -9.65467 | 3585 ft | 226 kts | 254° |
| 2026-05-06 18:29 | 52.15049 | -9.67942 | 4045 ft | 236 kts | 241° |
| 2026-05-06 18:30 | 52.13865 | -9.69884 | 4593 ft | 252 kts | 206° |
| 2026-05-06 18:30 | 52.12178 | -9.70544 | 4952 ft | 255 kts | 178° |
| 2026-05-06 18:30 | 52.10534 | -9.69712 | 4999 ft | 256 kts | 147° |
| 2026-05-06 18:30 | 52.09332 | -9.67558 | 5001 ft | 264 kts | 117° |
| 2026-05-06 18:31 | 52.08843 | -9.64662 | 5027 ft | 270 kts | 97° |
| 2026-05-06 18:31 | 52.08788 | -9.61591 | 5563 ft | 272 kts | 90° |
| 2026-05-06 18:31 | 52.08833 | -9.58547 | 6646 ft | 268 kts | 90° |
| 2026-05-06 18:31 | 52.08890 | -9.55490 | 7413 ft | 275 kts | 89° |
| 2026-05-06 18:32 | 52.08941 | -9.52349 | 8134 ft | 281 kts | 89° |
| 2026-05-06 18:32 | 52.08985 | -9.49123 | 8855 ft | 289 kts | 89° |
| 2026-05-06 18:32 | 52.09022 | -9.45847 | 9645 ft | 294 kts | 89° |
| 2026-05-06 18:32 | 52.09053 | -9.42498 | 10370 ft | 300 kts | 89° |
| 2026-05-06 18:33 | 52.09079 | -9.38972 | 10599 ft | 325 kts | 89° |
| 2026-05-06 18:33 | 52.09101 | -9.35209 | 10952 ft | 340 kts | 89° |
| 2026-05-06 18:33 | 52.09119 | -9.31329 | 11707 ft | 344 kts | 89° |
| 2026-05-06 18:33 | 52.09133 | -9.27426 | 12500 ft | 347 kts | 90° |
| 2026-05-06 18:34 | 52.09145 | -9.23472 | 13221 ft | 352 kts | 90° |
| 2026-05-06 18:34 | 52.09155 | -9.19493 | 13942 ft | 356 kts | 90° |
| 2026-05-06 18:34 | 52.09163 | -9.15448 | 14625 ft | 359 kts | 90° |
| 2026-05-06 18:34 | 52.09169 | -9.11377 | 15289 ft | 363 kts | 90° |
| 2026-05-06 18:35 | 52.09174 | -9.07253 | 15947 ft | 366 kts | 90° |
| 2026-05-06 18:35 | 52.09177 | -9.03097 | 16611 ft | 370 kts | 90° |
| 2026-05-06 18:35 | 52.09179 | -8.98891 | 17267 ft | 374 kts | 90° |
| 2026-05-06 18:35 | 52.09179 | -8.94652 | 17921 ft | 377 kts | 90° |
| 2026-05-06 18:36 | 52.09177 | -8.90363 | 18514 ft | 381 kts | 90° |
| 2026-05-06 18:36 | 52.09175 | -8.86035 | 19112 ft | 384 kts | 90° |
| 2026-05-06 18:36 | 52.09170 | -8.81673 | 19623 ft | 388 kts | 90° |
| 2026-05-06 18:36 | 52.09164 | -8.77271 | 20211 ft | 390 kts | 90° |
| 2026-05-06 18:37 | 52.09156 | -8.72836 | 20750 ft | 394 kts | 90° |
| 2026-05-06 18:37 | 52.09147 | -8.68382 | 21396 ft | 394 kts | 90° |
| 2026-05-06 18:37 | 52.09136 | -8.63911 | 21927 ft | 398 kts | 89° |
| 2026-05-06 18:37 | 52.09123 | -8.59382 | 22429 ft | 401 kts | 89° |
| 2026-05-06 18:38 | 52.09108 | -8.54852 | 23111 ft | 400 kts | 89° |
| 2026-05-06 18:38 | 52.09091 | -8.50307 | 23576 ft | 405 kts | 89° |
| 2026-05-06 18:38 | 52.09073 | -8.45703 | 23972 ft | 408 kts | 89° |
| 2026-05-06 18:38 | 52.09053 | -8.41086 | 24474 ft | 408 kts | 89° |
| 2026-05-06 18:39 | 52.09030 | -8.36458 | 24902 ft | 411 kts | 89° |
| 2026-05-06 18:39 | 52.09006 | -8.31796 | 25293 ft | 414 kts | 89° |
| 2026-05-06 18:39 | 52.08980 | -8.27113 | 25714 ft | 416 kts | 89° |
| 2026-05-06 18:40 | 52.08922 | -8.17703 | 26730 ft | 414 kts | 89° |
| 2026-05-06 18:40 | 52.08889 | -8.13034 | 27343 ft | 411 kts | 89° |
| 2026-05-06 18:40 | 52.08855 | -8.08401 | 27922 ft | 409 kts | 89° |
| 2026-05-06 18:40 | 52.08820 | -8.03788 | 28438 ft | 408 kts | 89° |
| 2026-05-06 18:41 | 52.08784 | -7.99179 | 28973 ft | 407 kts | 89° |
| 2026-05-06 18:41 | 52.08745 | -7.94581 | 29534 ft | 405 kts | 89° |
| 2026-05-06 18:41 | 52.08705 | -7.90031 | 30051 ft | 404 kts | 89° |
| 2026-05-06 18:41 | 52.08664 | -7.85471 | 30491 ft | 402 kts | 89° |
| 2026-05-06 18:42 | 52.08620 | -7.80937 | 30937 ft | 400 kts | 89° |
| 2026-05-06 18:42 | 52.08530 | -7.71824 | 30989 ft | 403 kts | 89° |
| 2026-05-06 18:43 | 52.08431 | -7.62785 | 30986 ft | 398 kts | 89° |
| 2026-05-06 18:43 | 52.08327 | -7.53832 | 30997 ft | 400 kts | 89° |
| 2026-05-06 18:44 | 52.08216 | -7.44767 | 31013 ft | 402 kts | 89° |
| 2026-05-06 18:44 | 52.08096 | -7.35673 | 31021 ft | 403 kts | 89° |
| 2026-05-06 18:45 | 52.07968 | -7.26505 | 31015 ft | 403 kts | 89° |
| 2026-05-06 18:45 | 52.07836 | -7.17485 | 31016 ft | 401 kts | 89° |
| 2026-05-06 18:46 | 52.07696 | -7.08438 | 31017 ft | 400 kts | 89° |
| 2026-05-06 18:46 | 52.07549 | -6.99433 | 31018 ft | 398 kts | 89° |
| 2026-05-06 18:47 | 52.07397 | -6.90468 | 31015 ft | 397 kts | 89° |
| 2026-05-06 18:47 | 52.07238 | -6.81488 | 31017 ft | 398 kts | 89° |
| 2026-05-06 18:48 | 52.07072 | -6.72475 | 31013 ft | 399 kts | 89° |
| 2026-05-06 18:48 | 52.06898 | -6.63439 | 31009 ft | 401 kts | 89° |
| 2026-05-06 18:49 | 52.06717 | -6.54401 | 31004 ft | 402 kts | 90° |
| 2026-05-06 18:49 | 52.06528 | -6.45318 | 31003 ft | 402 kts | 90° |
| 2026-05-06 18:50 | 52.06332 | -6.36229 | 31011 ft | 402 kts | 90° |
| 2026-05-06 18:50 | 52.06129 | -6.27134 | 31006 ft | 403 kts | 90° |
| 2026-05-06 18:51 | 52.05630 | -6.18071 | 30998 ft | 406 kts | 103° |
| 2026-05-06 18:51 | 52.03642 | -6.09474 | 31006 ft | 407 kts | 110° |
| 2026-05-06 18:52 | 52.01477 | -6.00963 | 31007 ft | 408 kts | 110° |
| 2026-05-06 18:52 | 51.99335 | -5.92435 | 31008 ft | 408 kts | 110° |
| 2026-05-06 18:53 | 51.97228 | -5.83958 | 31012 ft | 408 kts | 110° |
| 2026-05-06 18:53 | 51.95105 | -5.75415 | 31009 ft | 409 kts | 110° |
| 2026-05-06 18:54 | 51.92974 | -5.66871 | 31009 ft | 409 kts | 110° |
| 2026-05-06 18:54 | 51.90839 | -5.58342 | 31003 ft | 409 kts | 111° |
| 2026-05-06 18:55 | 51.88680 | -5.49754 | 31008 ft | 409 kts | 111° |
| 2026-05-06 18:55 | 51.86530 | -5.41233 | 31006 ft | 409 kts | 111° |
| 2026-05-06 18:56 | 51.84370 | -5.32707 | 31007 ft | 410 kts | 111° |
| 2026-05-06 18:56 | 51.82204 | -5.24185 | 31006 ft | 410 kts | 111° |
| 2026-05-06 18:57 | 51.80033 | -5.15670 | 31004 ft | 410 kts | 111° |
| 2026-05-06 18:57 | 51.77876 | -5.07150 | 31004 ft | 409 kts | 108° |
| 2026-05-06 18:58 | 51.76619 | -4.98236 | 31006 ft | 407 kts | 99° |
| 2026-05-06 18:58 | 51.75604 | -4.89235 | 31006 ft | 407 kts | 99° |
| 2026-05-06 18:59 | 51.74564 | -4.80250 | 31000 ft | 408 kts | 99° |
| 2026-05-06 18:59 | 51.73491 | -4.71250 | 31008 ft | 409 kts | 100° |
| 2026-05-06 19:00 | 51.72399 | -4.62218 | 31004 ft | 411 kts | 100° |
| 2026-05-06 19:00 | 51.71297 | -4.53170 | 30997 ft | 412 kts | 101° |
| 2026-05-06 19:01 | 51.70180 | -4.44081 | 31013 ft | 414 kts | 101° |
| 2026-05-06 19:01 | 51.69053 | -4.34949 | 31012 ft | 416 kts | 101° |
| 2026-05-06 19:02 | 51.67919 | -4.25831 | 31005 ft | 419 kts | 101° |
| 2026-05-06 19:02 | 51.66759 | -4.16563 | 31002 ft | 420 kts | 101° |
| 2026-05-06 19:03 | 51.65607 | -4.07416 | 31002 ft | 419 kts | 101° |
| 2026-05-06 19:03 | 51.64443 | -3.98231 | 31002 ft | 418 kts | 101° |
| 2026-05-06 19:04 | 51.63276 | -3.89079 | 31000 ft | 417 kts | 101° |
| 2026-05-06 19:04 | 51.62102 | -3.79959 | 30998 ft | 416 kts | 102° |
| 2026-05-06 19:05 | 51.60922 | -3.70841 | 31014 ft | 416 kts | 102° |
| 2026-05-06 19:05 | 51.59738 | -3.61741 | 31015 ft | 417 kts | 102° |
| 2026-05-06 19:06 | 51.59000 | -3.54022 | 31021 ft | 417 kts | 95° |
| 2026-05-06 19:06 | 51.58505 | -3.44784 | 31016 ft | 418 kts | 94° |
| 2026-05-06 19:07 | 51.58019 | -3.35466 | 31021 ft | 419 kts | 95° |
| 2026-05-06 19:07 | 51.57486 | -3.26138 | 31020 ft | 419 kts | 95° |
| 2026-05-06 19:08 | 51.56926 | -3.16810 | 31016 ft | 419 kts | 96° |
| 2026-05-06 19:08 | 51.56354 | -3.07479 | 31032 ft | 419 kts | 96° |
| 2026-05-06 19:09 | 51.55786 | -2.98340 | 30703 ft | 404 kts | 96° |
| 2026-05-06 19:09 | 51.55507 | -2.93879 | 30407 ft | 400 kts | 96° |
| 2026-05-06 19:09 | 51.55228 | -2.89447 | 30056 ft | 397 kts | 96° |
| 2026-05-06 19:09 | 51.54950 | -2.85052 | 29659 ft | 394 kts | 96° |
| 2026-05-06 19:10 | 51.54672 | -2.80692 | 29276 ft | 390 kts | 96° |
| 2026-05-06 19:10 | 51.54396 | -2.76388 | 28904 ft | 386 kts | 96° |
| 2026-05-06 19:10 | 51.54121 | -2.72119 | 28533 ft | 382 kts | 96° |
| 2026-05-06 19:10 | 51.53847 | -2.67887 | 28185 ft | 379 kts | 96° |
| 2026-05-06 19:11 | 51.53574 | -2.63698 | 27821 ft | 376 kts | 96° |
| 2026-05-06 19:11 | 51.53302 | -2.59546 | 27480 ft | 373 kts | 96° |
| 2026-05-06 19:11 | 51.53031 | -2.55417 | 27118 ft | 370 kts | 96° |
| 2026-05-06 19:11 | 51.52760 | -2.51326 | 26772 ft | 368 kts | 96° |
| 2026-05-06 19:12 | 51.52489 | -2.47258 | 26437 ft | 365 kts | 96° |
| 2026-05-06 19:12 | 51.52059 | -2.43259 | 26077 ft | 362 kts | 106° |
| 2026-05-06 19:12 | 51.51190 | -2.39494 | 25789 ft | 358 kts | 117° |
| 2026-05-06 19:12 | 51.50020 | -2.35936 | 25460 ft | 355 kts | 120° |
| 2026-05-06 19:13 | 51.48846 | -2.32517 | 25126 ft | 353 kts | 120° |
| 2026-05-06 19:13 | 51.47662 | -2.29079 | 24797 ft | 351 kts | 120° |
| 2026-05-06 19:13 | 51.46489 | -2.25651 | 24465 ft | 350 kts | 119° |
| 2026-05-06 19:13 | 51.45312 | -2.22187 | 24129 ft | 348 kts | 119° |
| 2026-05-06 19:14 | 51.44160 | -2.18784 | 23800 ft | 347 kts | 119° |
| 2026-05-06 19:14 | 51.43013 | -2.15390 | 23443 ft | 346 kts | 119° |
| 2026-05-06 19:14 | 51.41884 | -2.12047 | 23063 ft | 345 kts | 119° |
| 2026-05-06 19:14 | 51.40748 | -2.08684 | 22706 ft | 342 kts | 119° |
| 2026-05-06 19:15 | 51.39616 | -2.05343 | 22370 ft | 340 kts | 119° |
| 2026-05-06 19:15 | 51.38490 | -2.02027 | 22038 ft | 338 kts | 118° |
| 2026-05-06 19:15 | 51.37563 | -1.98595 | 21704 ft | 336 kts | 107° |
| 2026-05-06 19:15 | 51.37077 | -1.94968 | 21411 ft | 332 kts | 97° |
| 2026-05-06 19:16 | 51.36813 | -1.91310 | 21092 ft | 330 kts | 96° |
| 2026-05-06 19:16 | 51.36572 | -1.87666 | 20762 ft | 328 kts | 96° |
| 2026-05-06 19:16 | 51.36330 | -1.84043 | 20440 ft | 327 kts | 96° |
| 2026-05-06 19:16 | 51.36081 | -1.80439 | 20120 ft | 325 kts | 96° |
| 2026-05-06 19:17 | 51.35827 | -1.76846 | 19805 ft | 324 kts | 96° |
| 2026-05-06 19:17 | 51.35568 | -1.73273 | 19488 ft | 323 kts | 96° |
| 2026-05-06 19:17 | 51.35308 | -1.69715 | 19174 ft | 321 kts | 96° |
| 2026-05-06 19:17 | 51.35048 | -1.66171 | 18862 ft | 320 kts | 96° |
| 2026-05-06 19:18 | 51.34787 | -1.62646 | 18542 ft | 319 kts | 96° |
| 2026-05-06 19:18 | 51.34524 | -1.59123 | 18235 ft | 318 kts | 96° |
| 2026-05-06 19:18 | 51.34262 | -1.55622 | 17939 ft | 315 kts | 96° |
| 2026-05-06 19:18 | 51.34001 | -1.52162 | 17784 ft | 312 kts | 96° |
| 2026-05-06 19:19 | 51.33737 | -1.48670 | 17640 ft | 321 kts | 96° |
| 2026-05-06 19:19 | 51.33464 | -1.45082 | 17477 ft | 328 kts | 96° |
| 2026-05-06 19:19 | 51.33188 | -1.41450 | 17301 ft | 329 kts | 96° |
| 2026-05-06 19:19 | 51.32913 | -1.37854 | 17124 ft | 327 kts | 96° |
| 2026-05-06 19:20 | 51.32636 | -1.34250 | 16951 ft | 326 kts | 96° |
| 2026-05-06 19:20 | 51.32362 | -1.30681 | 16788 ft | 324 kts | 96° |
| 2026-05-06 19:20 | 51.32087 | -1.27120 | 16625 ft | 322 kts | 96° |
| 2026-05-06 19:20 | 51.31812 | -1.23573 | 16466 ft | 321 kts | 96° |
| 2026-05-06 19:21 | 51.31538 | -1.20061 | 16303 ft | 319 kts | 96° |
| 2026-05-06 19:21 | 51.31370 | -1.16543 | 16135 ft | 317 kts | 83° |
| 2026-05-06 19:21 | 51.31807 | -1.13110 | 16013 ft | 314 kts | 75° |
| 2026-05-06 19:21 | 51.32339 | -1.09731 | 15845 ft | 313 kts | 75° |
| 2026-05-06 19:22 | 51.32872 | -1.06357 | 15717 ft | 313 kts | 75° |
| 2026-05-06 19:22 | 51.33398 | -1.02984 | 15557 ft | 313 kts | 75° |
| 2026-05-06 19:22 | 51.33918 | -0.99606 | 15395 ft | 313 kts | 75° |
| 2026-05-06 19:22 | 51.34433 | -0.96225 | 15240 ft | 313 kts | 75° |
| 2026-05-06 19:23 | 51.34942 | -0.92849 | 15086 ft | 312 kts | 75° |
| 2026-05-06 19:23 | 51.35449 | -0.89468 | 14930 ft | 312 kts | 75° |
| 2026-05-06 19:23 | 51.35953 | -0.86090 | 14774 ft | 312 kts | 75° |
| 2026-05-06 19:23 | 51.36454 | -0.82725 | 14623 ft | 312 kts | 75° |
| 2026-05-06 19:24 | 51.36954 | -0.79349 | 14470 ft | 312 kts | 75° |
| 2026-05-06 19:24 | 51.37452 | -0.75979 | 14317 ft | 311 kts | 75° |
| 2026-05-06 19:24 | 51.37949 | -0.72613 | 14162 ft | 310 kts | 75° |
| 2026-05-06 19:24 | 51.38443 | -0.69257 | 14015 ft | 309 kts | 75° |
| 2026-05-06 19:25 | 51.38933 | -0.65916 | 13854 ft | 308 kts | 75° |
| 2026-05-06 19:25 | 51.39422 | -0.62584 | 13692 ft | 307 kts | 75° |
| 2026-05-06 19:25 | 51.39907 | -0.59263 | 13528 ft | 306 kts | 75° |
| 2026-05-06 19:25 | 51.40390 | -0.55956 | 13371 ft | 304 kts | 75° |
| 2026-05-06 19:26 | 51.40869 | -0.52668 | 13218 ft | 303 kts | 75° |
| 2026-05-06 19:26 | 51.41345 | -0.49395 | 13067 ft | 301 kts | 75° |
| 2026-05-06 19:26 | 51.41819 | -0.46131 | 12918 ft | 300 kts | 75° |
| 2026-05-06 19:26 | 51.42289 | -0.42880 | 12764 ft | 299 kts | 75° |
| 2026-05-06 19:27 | 51.42757 | -0.39640 | 12622 ft | 298 kts | 75° |
| 2026-05-06 19:27 | 51.43369 | -0.36489 | 12452 ft | 295 kts | 58° |
| 2026-05-06 19:27 | 51.44689 | -0.34058 | 12317 ft | 288 kts | 34° |
| 2026-05-06 19:27 | 51.46420 | -0.32497 | 12208 ft | 285 kts | 24° |
| 2026-05-06 19:28 | 51.48224 | -0.31126 | 12082 ft | 289 kts | 23° |
| 2026-05-06 19:28 | 51.50040 | -0.29772 | 12001 ft | 288 kts | 23° |
| 2026-05-06 19:28 | 51.51841 | -0.28424 | 11993 ft | 283 kts | 23° |
| 2026-05-06 19:28 | 51.53618 | -0.27085 | 11993 ft | 284 kts | 23° |
| 2026-05-06 19:29 | 51.55428 | -0.25714 | 11995 ft | 291 kts | 23° |
| 2026-05-06 19:29 | 51.57267 | -0.24313 | 12000 ft | 294 kts | 24° |
| 2026-05-06 19:29 | 51.59110 | -0.22903 | 12049 ft | 293 kts | 24° |
| 2026-05-06 19:29 | 51.60952 | -0.21490 | 12042 ft | 293 kts | 23° |
| 2026-05-06 19:30 | 51.62788 | -0.20079 | 12038 ft | 292 kts | 23° |
| 2026-05-06 19:30 | 51.64619 | -0.18670 | 12044 ft | 291 kts | 23° |
| 2026-05-06 19:30 | 51.66444 | -0.17264 | 12045 ft | 291 kts | 23° |
| 2026-05-06 19:30 | 51.68269 | -0.15857 | 12047 ft | 290 kts | 24° |
| 2026-05-06 19:31 | 51.70093 | -0.14450 | 12053 ft | 291 kts | 23° |
| 2026-05-06 19:31 | 51.71917 | -0.13041 | 12053 ft | 291 kts | 23° |
| 2026-05-06 19:31 | 51.75581 | -0.10219 | 11952 ft | 294 kts | 22° |
| 2026-05-06 19:32 | 51.77454 | -0.08882 | 11764 ft | 294 kts | 21° |
| 2026-05-06 19:32 | 51.79330 | -0.07583 | 11581 ft | 293 kts | 21° |
| 2026-05-06 19:32 | 51.81199 | -0.06292 | 11409 ft | 292 kts | 21° |
| 2026-05-06 19:32 | 51.83059 | -0.05001 | 11234 ft | 291 kts | 21° |
| 2026-05-06 19:33 | 51.84911 | -0.03711 | 11051 ft | 289 kts | 21° |
| 2026-05-06 19:33 | 51.86751 | -0.02422 | 10859 ft | 288 kts | 21° |
| 2026-05-06 19:33 | 51.88584 | -0.01135 | 10691 ft | 286 kts | 21° |
| 2026-05-06 19:33 | 51.90408 | 0.00147 | 10514 ft | 285 kts | 21° |
| 2026-05-06 19:34 | 51.92225 | 0.01426 | 10357 ft | 284 kts | 21° |
| 2026-05-06 19:34 | 51.94031 | 0.02720 | 10174 ft | 284 kts | 25° |
| 2026-05-06 19:34 | 51.95569 | 0.04712 | 10004 ft | 286 kts | 47° |
| 2026-05-06 19:34 | 51.96804 | 0.07196 | 9804 ft | 278 kts | 50° |
| 2026-05-06 19:35 | 51.97959 | 0.09658 | 9509 ft | 269 kts | 51° |
| 2026-05-06 19:35 | 51.99071 | 0.12040 | 9230 ft | 261 kts | 52° |
| 2026-05-06 19:35 | 52.00150 | 0.14366 | 8954 ft | 255 kts | 51° |
| 2026-05-06 19:35 | 52.01211 | 0.16636 | 8687 ft | 251 kts | 52° |
| 2026-05-06 19:36 | 52.01994 | 0.19149 | 8408 ft | 253 kts | 78° |
| 2026-05-06 19:36 | 52.01918 | 0.21968 | 8127 ft | 254 kts | 109° |
| 2026-05-06 19:36 | 52.00982 | 0.24364 | 7832 ft | 255 kts | 139° |
| 2026-05-06 19:36 | 51.99431 | 0.25690 | 7536 ft | 255 kts | 169° |
| 2026-05-06 19:37 | 51.97675 | 0.25593 | 7238 ft | 256 kts | 198° |
| 2026-05-06 19:37 | 51.96170 | 0.24099 | 6945 ft | 257 kts | 225° |
| 2026-05-06 19:37 | 51.94999 | 0.21920 | 6663 ft | 256 kts | 230° |
| 2026-05-06 19:37 | 51.94263 | 0.20426 | 6488 ft | 254 kts | 230° |
| 2026-05-06 19:38 | 51.92818 | 0.17445 | 5923 ft | 246 kts | 231° |
| 2026-05-06 19:38 | 51.91781 | 0.15315 | 5543 ft | 236 kts | 231° |
| 2026-05-06 19:38 | 51.90769 | 0.13267 | 5152 ft | 231 kts | 231° |
| 2026-05-06 19:38 | 51.89756 | 0.11255 | 4896 ft | 231 kts | 231° |
| 2026-05-06 19:39 | 51.88729 | 0.09245 | 4639 ft | 233 kts | 231° |
| 2026-05-06 19:39 | 51.87684 | 0.07214 | 4378 ft | 237 kts | 231° |
| 2026-05-06 19:39 | 51.86628 | 0.05169 | 4115 ft | 237 kts | 231° |
| 2026-05-06 19:39 | 51.85584 | 0.03145 | 3843 ft | 232 kts | 231° |
| 2026-05-06 19:40 | 51.84553 | 0.01158 | 3583 ft | 229 kts | 230° |
| 2026-05-06 19:40 | 51.83419 | -0.00636 | 3318 ft | 231 kts | 211° |
| 2026-05-06 19:40 | 51.81877 | -0.01306 | 3057 ft | 233 kts | 177° |
| 2026-05-06 19:40 | 51.80296 | -0.00764 | 2841 ft | 232 kts | 162° |
| 2026-05-06 19:41 | 51.78797 | 0.00166 | 2529 ft | 230 kts | 146° |
| 2026-05-06 19:41 | 51.77767 | 0.02023 | 2239 ft | 216 kts | 110° |
| 2026-05-06 19:41 | 51.77602 | 0.04285 | 2063 ft | 202 kts | 76° |
| 2026-05-06 19:41 | 51.77931 | 0.06433 | 2023 ft | 189 kts | 71° |
| 2026-05-06 19:42 | 51.78426 | 0.08273 | 1985 ft | 171 kts | 45° |
| 2026-05-06 19:42 | 51.79266 | 0.09576 | 2007 ft | 170 kts | 41° |
| 2026-05-06 19:42 | 51.80132 | 0.10914 | 2004 ft | 175 kts | 40° |
| 2026-05-06 19:42 | 51.81022 | 0.12258 | 2016 ft | 175 kts | 41° |
| 2026-05-06 19:43 | 51.81903 | 0.13581 | 1910 ft | 170 kts | 40° |
| 2026-05-06 19:43 | 51.82759 | 0.14867 | 1692 ft | 165 kts | 40° |
| 2026-05-06 19:43 | 51.83587 | 0.16110 | 1478 ft | 160 kts | 40° |
| 2026-05-06 19:43 | 51.84373 | 0.17291 | 1289 ft | 148 kts | 39° |
| 2026-05-06 19:44 | 51.85112 | 0.18397 | 1055 ft | 147 kts | 40° |
| 2026-05-06 19:44 | 51.85858 | 0.19513 | 814 ft | 146 kts | 40° |
| 2026-05-06 19:44 | 51.86578 | 0.20596 | 622 ft | 138 kts | 41° |
| 2026-05-06 19:44 | 51.87282 | 0.21654 | 438 ft | 137 kts | 42° |
| 2026-05-06 19:45 | 51.87978 | 0.22696 | 334 ft | 130 kts | 43° |
| 2026-05-06 19:45 | 51.88535 | 0.23530 | 337 ft | 80 kts | 43° |
| 2026-05-06 19:45 | 51.88802 | 0.23953 | 340 ft | 45 kts | 53° |
| 2026-05-06 19:45 | 51.88863 | 0.24152 | 350 ft | 0 kts | 70° |
| 2026-05-06 19:46 | 51.88876 | 0.24211 | 351 ft | 12 kts | 70° |
| 2026-05-06 19:46 | 51.88896 | 0.24306 | 349 ft | 14 kts | 71° |
| 2026-05-06 19:46 | 51.88919 | 0.24451 | 356 ft | 12 kts | 88° |
| 2026-05-06 19:47 | 51.88936 | 0.24616 | 351 ft | 12 kts | 42° |
| 2026-05-06 19:47 | 51.88976 | 0.24677 | 351 ft | 12 kts | 43° |
| 2026-05-06 19:47 | 51.89035 | 0.24767 | 359 ft | 12 kts | 43° |
| 2026-05-06 19:47 | 51.89091 | 0.24851 | 355 ft | 10 kts | 43° |
| 2026-05-06 19:48 | 51.89142 | 0.24927 | 351 ft | 10 kts | 42° |
| 2026-05-06 19:48 | 51.89202 | 0.25020 | 351 ft | 14 kts | 48° |
| 2026-05-06 19:48 | 51.89238 | 0.25156 | 354 ft | 16 kts | 104° |
| 2026-05-06 19:48 | 51.89185 | 0.25294 | 354 ft | 12 kts | 118° |
| 2026-05-06 19:49 | 51.89134 | 0.25405 | 359 ft | 12 kts | 135° |
| 2026-05-06 19:49 | 51.89087 | 0.25485 | 356 ft | 9 kts | 133° |
| 2026-05-06 19:49 | 51.89055 | 0.25547 | 351 ft | 3 kts | 115° |
| 2026-05-06 19:49 | 51.89063 | 0.25583 | 356 ft | 4 kts | 53° |
| 2026-05-06 19:50 | 51.89077 | 0.25609 | 351 ft | 0 kts | 44° |